createdAt,value
2018-08-31T00:01:25.613Z,4.40
2018-08-31T00:06:03.442Z,4.27
2018-08-31T00:08:42.990Z,2.97
2018-08-31T00:11:21.955Z,2.47
2018-08-31T00:13:50.305Z,3.03
2018-08-31T00:16:18.751Z,3.33
2018-08-31T00:18:47.150Z,4.13
2018-08-31T00:21:15.556Z,3.43
2018-08-31T00:26:02.455Z,2.87
2018-08-31T00:28:42.067Z,2.60
2018-08-31T00:31:21.692Z,2.87
2018-08-31T00:34:03.114Z,2.17
2018-08-31T00:36:43.912Z,3.40
2018-08-31T00:40:22.764Z,2.20
2018-08-31T00:43:02.366Z,2.23
2018-08-31T00:45:32.931Z,2.97
2018-08-31T00:48:01.869Z,3.30
2018-08-31T00:50:30.576Z,4.47
2018-08-31T00:52:59.238Z,2.90
2018-08-31T00:55:27.774Z,2.97
2018-08-31T00:57:56.171Z,3.57
2018-08-31T01:00:24.529Z,3.90
2018-08-31T01:02:52.903Z,4.07
2018-08-31T01:05:21.272Z,3.10
2018-08-31T01:07:49.958Z,3.23
2018-08-31T01:10:22.764Z,2.40
2018-08-31T01:12:51.609Z,2.03
2018-08-31T01:15:19.994Z,3.27
2018-08-31T01:17:48.380Z,2.50
2018-08-31T01:20:16.827Z,4.33
2018-08-31T01:22:45.186Z,3.90
2018-08-31T01:25:13.554Z,3.30
2018-08-31T01:27:42.182Z,3.67
2018-08-31T01:30:10.663Z,2.43
2018-08-31T01:32:39.176Z,2.30
2018-08-31T01:35:07.581Z,2.47
2018-08-31T01:37:35.946Z,2.83
2018-08-31T01:40:04.404Z,3.10
2018-08-31T01:42:32.856Z,2.50
2018-08-31T01:45:01.469Z,2.67
2018-08-31T01:47:29.850Z,3.50
2018-08-31T01:49:58.186Z,3.00
2018-08-31T01:52:26.696Z,2.40
2018-08-31T01:54:55.138Z,3.07
2018-08-31T01:57:23.512Z,2.27
2018-08-31T01:59:51.838Z,3.00
2018-08-31T02:02:22.378Z,3.27
2018-08-31T02:04:50.754Z,3.80
2018-08-31T02:07:19.144Z,2.77
2018-08-31T02:09:47.525Z,2.70
2018-08-31T02:12:15.922Z,3.03
2018-08-31T02:14:44.246Z,3.87
2018-08-31T02:17:12.663Z,3.87
2018-08-31T02:19:40.987Z,2.63
2018-08-31T02:22:09.384Z,3.93
2018-08-31T02:24:38.010Z,2.50
2018-08-31T02:27:06.371Z,2.37
2018-08-31T02:29:34.705Z,3.20
2018-08-31T02:32:03.560Z,3.77
2018-08-31T02:34:31.909Z,3.33
2018-08-31T02:37:01.054Z,3.03
2018-08-31T02:39:29.581Z,2.83
2018-08-31T02:41:57.909Z,2.30
2018-08-31T02:44:26.252Z,2.53
2018-08-31T02:46:54.604Z,2.43
2018-08-31T02:49:22.899Z,2.40
2018-08-31T02:51:51.241Z,2.50
2018-08-31T02:54:19.664Z,2.40
2018-08-31T02:56:48.006Z,2.97
2018-08-31T02:59:16.294Z,2.40
2018-08-31T03:01:45.304Z,3.10
2018-08-31T03:04:13.698Z,2.03
2018-08-31T03:06:42.079Z,2.87
2018-08-31T03:09:10.544Z,2.73
2018-08-31T03:11:39.116Z,2.50
2018-08-31T03:14:07.646Z,2.27
2018-08-31T03:16:36.132Z,2.70
2018-08-31T03:19:04.482Z,2.57
2018-08-31T03:21:32.800Z,2.50
2018-08-31T03:24:01.180Z,1.93
2018-08-31T03:26:29.532Z,2.07
2018-08-31T03:28:57.984Z,3.60
2018-08-31T03:31:26.332Z,4.40
2018-08-31T03:33:54.677Z,3.07
2018-08-31T03:36:23.040Z,2.73
2018-08-31T03:38:51.442Z,2.97
2018-08-31T03:41:19.735Z,2.37
2018-08-31T03:43:48.187Z,3.27
2018-08-31T03:46:16.556Z,3.40
2018-08-31T03:48:44.992Z,2.70
2018-08-31T03:51:13.322Z,2.93
2018-08-31T03:53:42.507Z,2.77
2018-08-31T03:56:10.974Z,2.77
2018-08-31T03:58:39.317Z,2.90
2018-08-31T04:01:07.637Z,2.67
2018-08-31T04:03:36.705Z,2.60
2018-08-31T04:06:05.098Z,2.97
2018-08-31T04:08:33.607Z,3.40
2018-08-31T04:11:01.973Z,3.83
2018-08-31T04:13:30.523Z,3.87
2018-08-31T04:15:58.951Z,3.03
2018-08-31T04:18:27.294Z,3.70
2018-08-31T04:20:55.643Z,3.03
2018-08-31T04:23:24.025Z,2.93
2018-08-31T04:25:52.365Z,3.30
2018-08-31T04:28:20.839Z,3.87
2018-08-31T04:30:49.185Z,3.03
2018-08-31T04:33:17.587Z,3.30
2018-08-31T04:35:45.933Z,2.40
2018-08-31T04:38:14.279Z,2.77
2018-08-31T04:40:42.650Z,3.43
2018-08-31T04:43:11.523Z,2.57
2018-08-31T04:45:39.845Z,2.90
2018-08-31T04:48:08.185Z,2.57
2018-08-31T04:50:37.292Z,2.10
2018-08-31T04:53:06.306Z,2.57
2018-08-31T04:55:34.655Z,2.37
2018-08-31T04:58:02.999Z,2.03
2018-08-31T05:00:31.349Z,2.53
2018-08-31T05:02:59.691Z,2.20
2018-08-31T05:05:28.123Z,3.03
2018-08-31T05:07:56.468Z,2.33
2018-08-31T05:10:24.859Z,3.27
2018-08-31T05:12:53.273Z,2.27
2018-08-31T05:15:21.723Z,1.70
2018-08-31T05:17:50.075Z,2.50
2018-08-31T05:20:18.471Z,2.17
2018-08-31T05:22:47.503Z,1.77
2018-08-31T05:25:15.868Z,1.87
2018-08-31T05:27:44.960Z,1.80
2018-08-31T05:30:13.267Z,2.40
2018-08-31T05:32:41.843Z,2.50
2018-08-31T05:35:10.220Z,3.50
2018-08-31T05:37:38.669Z,3.43
2018-08-31T05:40:07.154Z,2.30
2018-08-31T05:42:35.519Z,3.20
2018-08-31T05:45:03.867Z,2.53
2018-08-31T05:47:32.239Z,2.60
2018-08-31T05:50:00.570Z,2.83
2018-08-31T05:52:29.061Z,2.67
2018-08-31T05:54:57.435Z,2.50
2018-08-31T05:57:25.789Z,2.40
2018-08-31T05:59:54.125Z,1.37
2018-08-31T06:02:22.697Z,2.30
2018-08-31T06:04:51.060Z,3.53
2018-08-31T06:07:19.399Z,2.10
2018-08-31T06:09:47.931Z,2.93
2018-08-31T06:12:16.257Z,2.40
2018-08-31T06:14:44.601Z,2.90
2018-08-31T06:17:13.000Z,2.27
2018-08-31T06:19:41.384Z,2.10
2018-08-31T06:22:09.731Z,3.10
2018-08-31T06:24:38.845Z,2.97
2018-08-31T06:27:07.231Z,2.23
2018-08-31T06:29:35.630Z,1.83
2018-08-31T06:32:03.967Z,3.50
2018-08-31T06:34:32.919Z,2.87
2018-08-31T06:37:01.256Z,2.43
2018-08-31T06:39:29.730Z,2.97
2018-08-31T06:41:58.077Z,2.60
2018-08-31T06:44:26.451Z,1.70
2018-08-31T06:46:54.820Z,1.77
2018-08-31T06:49:26.921Z,2.03
2018-08-31T06:51:55.310Z,1.90
2018-08-31T06:54:23.664Z,3.03
2018-08-31T06:56:52.031Z,1.73
2018-08-31T06:59:20.362Z,1.57
2018-08-31T07:01:48.828Z,2.00
2018-08-31T07:04:17.240Z,2.10
2018-08-31T07:06:45.584Z,2.90
2018-08-31T07:09:13.963Z,2.37
2018-08-31T07:11:42.272Z,2.80
2018-08-31T07:14:10.662Z,2.50
2018-08-31T07:16:39.084Z,2.10
2018-08-31T07:19:07.532Z,1.93
2018-08-31T07:21:36.480Z,1.67
2018-08-31T07:24:05.024Z,1.80
2018-08-31T07:26:33.471Z,2.43
2018-08-31T07:29:01.699Z,2.27
2018-08-31T07:31:30.420Z,2.10
2018-08-31T07:33:58.927Z,2.60
2018-08-31T07:36:27.323Z,2.93
2018-08-31T07:38:55.617Z,2.07
2018-08-31T07:41:23.948Z,2.53
2018-08-31T07:43:52.274Z,3.03
2018-08-31T07:46:20.632Z,1.93
2018-08-31T07:48:48.994Z,2.53
2018-08-31T07:51:17.320Z,2.50
2018-08-31T07:53:45.700Z,2.27
2018-08-31T07:56:14.072Z,2.30
2018-08-31T07:58:42.633Z,2.20
2018-08-31T08:01:11.039Z,2.53
2018-08-31T08:03:39.420Z,2.10
2018-08-31T08:06:07.785Z,2.10
2018-08-31T08:08:36.110Z,2.73
2018-08-31T08:11:04.658Z,2.37
2018-08-31T08:13:33.013Z,1.90
2018-08-31T08:16:01.381Z,2.10
2018-08-31T08:18:29.826Z,1.80
2018-08-31T08:20:58.212Z,2.57
2018-08-31T08:23:26.753Z,1.97
2018-08-31T08:25:55.172Z,1.90
2018-08-31T08:28:30.900Z,2.20
2018-08-31T08:30:59.297Z,1.80
2018-08-31T08:33:27.812Z,2.00
2018-08-31T08:35:56.189Z,2.10
2018-08-31T08:38:24.526Z,1.73
2018-08-31T08:40:52.913Z,1.53
2018-08-31T08:43:21.288Z,1.90
2018-08-31T08:45:49.633Z,1.73
2018-08-31T08:48:18.098Z,1.23
2018-08-31T08:50:46.383Z,2.17
2018-08-31T08:53:14.707Z,2.30
2018-08-31T08:55:43.079Z,2.97
2018-08-31T08:58:12.218Z,2.57
2018-08-31T09:00:40.546Z,2.17
2018-08-31T09:03:09.623Z,3.20
2018-08-31T09:05:38.036Z,2.40
2018-08-31T09:08:06.912Z,1.67
2018-08-31T09:10:35.297Z,1.93
2018-08-31T09:13:03.670Z,2.03
2018-08-31T09:15:32.158Z,2.67
2018-08-31T09:18:00.488Z,2.80
2018-08-31T09:20:28.864Z,2.87
2018-08-31T09:22:57.322Z,3.10
2018-08-31T09:25:25.814Z,1.97
2018-08-31T09:27:55.290Z,2.53
2018-08-31T09:30:28.956Z,2.77
2018-08-31T09:32:57.351Z,2.67
2018-08-31T09:35:25.708Z,2.80
2018-08-31T09:37:54.069Z,2.97
2018-08-31T09:40:22.514Z,3.10
2018-08-31T09:42:50.882Z,3.63
2018-08-31T09:45:19.290Z,2.93
2018-08-31T09:47:47.603Z,2.30
2018-08-31T09:50:17.528Z,2.97
2018-08-31T09:52:45.893Z,3.40
2018-08-31T09:55:14.241Z,2.80
2018-08-31T09:57:42.602Z,3.10
2018-08-31T10:00:10.986Z,2.93
2018-08-31T10:02:44.400Z,2.20
2018-08-31T10:05:12.747Z,2.83
2018-08-31T10:07:41.106Z,2.73
2018-08-31T10:10:09.663Z,2.40
2018-08-31T10:12:38.050Z,2.03
2018-08-31T10:15:06.427Z,3.30
2018-08-31T10:17:34.737Z,4.07
2018-08-31T10:20:03.133Z,3.27
2018-08-31T10:22:31.482Z,3.40
2018-08-31T10:24:59.943Z,3.90
2018-08-31T10:27:28.297Z,2.60
2018-08-31T10:29:56.650Z,3.27
2018-08-31T10:32:25.010Z,1.87
2018-08-31T10:34:53.371Z,2.07
2018-08-31T10:37:21.748Z,2.93
2018-08-31T10:39:50.090Z,2.83
2018-08-31T10:42:18.501Z,3.80
2018-08-31T10:44:47.415Z,3.10
2018-08-31T10:47:16.328Z,2.93
2018-08-31T10:49:44.688Z,2.80
2018-08-31T10:52:13.069Z,2.40
2018-08-31T10:54:42.219Z,2.97
2018-08-31T10:57:10.548Z,2.60
2018-08-31T10:59:38.927Z,2.23
2018-08-31T11:02:07.282Z,2.80
2018-08-31T11:04:35.628Z,2.60
2018-08-31T11:07:04.480Z,2.17
2018-08-31T11:09:32.815Z,2.63
2018-08-31T11:12:01.153Z,2.90
2018-08-31T11:14:29.516Z,2.60
2018-08-31T11:16:57.870Z,2.40
2018-08-31T11:19:26.307Z,2.50
2018-08-31T11:21:54.665Z,3.10
2018-08-31T11:24:23.043Z,2.80
2018-08-31T11:26:51.375Z,2.87
2018-08-31T11:29:19.712Z,2.73
2018-08-31T11:31:48.136Z,3.00
2018-08-31T11:34:16.493Z,2.43
2018-08-31T11:36:44.879Z,2.93
2018-08-31T11:39:13.413Z,3.17
2018-08-31T11:41:41.775Z,2.40
2018-08-31T11:44:10.516Z,3.20
2018-08-31T11:46:39.334Z,2.50
2018-08-31T11:49:07.670Z,2.43
2018-08-31T11:51:35.999Z,2.53
2018-08-31T11:54:04.365Z,2.10
2018-08-31T11:56:32.729Z,2.90
2018-08-31T11:59:01.166Z,2.33
2018-08-31T12:01:29.555Z,2.37
2018-08-31T12:03:57.852Z,2.00
2018-08-31T12:06:26.235Z,2.27
2018-08-31T12:08:54.560Z,3.63
2018-08-31T12:11:22.971Z,2.73
2018-08-31T12:13:51.604Z,2.00
2018-08-31T12:16:19.993Z,2.63
2018-08-31T12:18:48.542Z,2.60
2018-08-31T12:21:16.884Z,1.57
2018-08-31T12:23:45.240Z,3.00
2018-08-31T12:26:13.583Z,2.33
2018-08-31T12:28:41.950Z,2.37
2018-08-31T12:31:10.378Z,2.60
2018-08-31T12:33:38.849Z,2.73
2018-08-31T12:36:07.223Z,2.23
2018-08-31T12:38:35.652Z,2.97
2018-08-31T12:41:03.995Z,2.70
2018-08-31T12:43:32.371Z,2.03
2018-08-31T12:46:00.833Z,2.47
2018-08-31T12:48:29.181Z,3.13
2018-08-31T12:50:57.583Z,2.53
2018-08-31T12:53:26.024Z,2.23
2018-08-31T12:55:54.454Z,2.50
2018-08-31T12:58:23.370Z,2.60
2018-08-31T13:00:51.691Z,1.57
2018-08-31T13:03:20.090Z,1.90
2018-08-31T13:05:48.403Z,1.70
2018-08-31T13:08:16.960Z,1.93
2018-08-31T13:10:45.323Z,2.00
2018-08-31T13:13:13.720Z,2.27
2018-08-31T13:15:42.081Z,2.23
2018-08-31T13:18:10.474Z,1.77
2018-08-31T13:20:38.927Z,2.50
2018-08-31T13:23:07.355Z,1.70
2018-08-31T13:25:35.709Z,2.07
2018-08-31T13:28:04.049Z,2.03
2018-08-31T13:30:32.419Z,2.13
2018-08-31T13:33:00.786Z,2.17
2018-08-31T13:35:29.250Z,1.50
2018-08-31T13:37:58.173Z,2.30
2018-08-31T13:40:26.483Z,1.83
2018-08-31T13:42:54.822Z,1.93
2018-08-31T13:45:23.927Z,2.13
2018-08-31T13:47:52.394Z,2.00
2018-08-31T13:50:20.753Z,2.03
2018-08-31T13:52:49.087Z,1.83
2018-08-31T13:55:18.644Z,2.07
2018-08-31T13:57:47.035Z,1.97
2018-08-31T14:00:15.368Z,2.07
2018-08-31T14:02:43.730Z,1.60
2018-08-31T14:05:12.114Z,2.23
2018-08-31T14:07:40.460Z,2.00
2018-08-31T14:10:09.202Z,1.90
2018-08-31T14:12:37.556Z,2.67
2018-08-31T14:15:05.967Z,2.40
2018-08-31T14:17:34.306Z,1.73
2018-08-31T14:20:02.683Z,1.60
2018-08-31T14:22:31.740Z,1.83
2018-08-31T14:25:00.122Z,2.03
2018-08-31T14:27:28.506Z,2.13
2018-08-31T14:29:57.031Z,2.20
2018-08-31T14:32:25.210Z,2.10
2018-08-31T14:34:53.586Z,2.17
2018-08-31T14:37:21.936Z,1.60
2018-08-31T14:39:50.328Z,2.17
2018-08-31T14:42:18.736Z,2.10
2018-08-31T14:44:47.093Z,2.53
2018-08-31T14:47:15.553Z,2.13
2018-08-31T14:49:43.941Z,1.30
2018-08-31T14:52:12.311Z,2.20
2018-08-31T14:54:40.645Z,2.33
2018-08-31T14:57:09.034Z,1.40
2018-08-31T14:59:37.388Z,2.27
2018-08-31T15:02:05.816Z,1.70
2018-08-31T15:04:34.151Z,1.97
2018-08-31T15:07:02.604Z,1.83
2018-08-31T15:09:31.025Z,1.73
2018-08-31T15:11:59.384Z,2.30
2018-08-31T15:14:27.711Z,1.83
2018-08-31T15:16:56.073Z,2.00
2018-08-31T15:19:24.443Z,1.87
2018-08-31T15:21:52.778Z,1.83
2018-08-31T15:24:21.334Z,1.97
2018-08-31T15:26:49.772Z,2.00
2018-08-31T15:29:18.117Z,2.70
2018-08-31T15:31:46.653Z,1.60
2018-08-31T15:34:14.975Z,1.90
2018-08-31T15:36:43.522Z,2.00
2018-08-31T15:39:12.609Z,1.90
2018-08-31T15:41:40.959Z,1.40
2018-08-31T15:44:09.484Z,1.40
2018-08-31T15:46:37.872Z,1.73
2018-08-31T15:49:06.258Z,1.93
2018-08-31T15:51:34.618Z,1.53
2018-08-31T15:54:02.991Z,2.10
2018-08-31T15:56:31.358Z,1.43
2018-08-31T15:58:59.723Z,1.60
2018-08-31T16:01:28.758Z,1.17
2018-08-31T16:03:57.234Z,2.00
2018-08-31T16:06:25.693Z,2.00
2018-08-31T16:08:54.039Z,1.57
2018-08-31T16:11:22.366Z,1.80
2018-08-31T16:13:51.340Z,1.83
2018-08-31T16:16:19.725Z,1.57
2018-08-31T16:18:48.104Z,1.77
2018-08-31T16:21:16.422Z,1.50
2018-08-31T16:23:44.816Z,1.80
2018-08-31T16:26:13.231Z,1.63
2018-08-31T16:28:41.579Z,1.83
2018-08-31T16:31:10.672Z,1.67
2018-08-31T16:33:39.053Z,1.60
2018-08-31T16:36:08.175Z,0.90
2018-08-31T16:38:36.558Z,1.57
2018-08-31T16:41:04.936Z,1.40
2018-08-31T16:43:33.313Z,1.50
2018-08-31T16:46:01.712Z,1.60
2018-08-31T16:48:30.692Z,1.30
2018-08-31T16:50:59.018Z,1.03
2018-08-31T16:53:27.358Z,1.87
2018-08-31T16:55:55.742Z,2.20
2018-08-31T16:58:24.135Z,1.50
2018-08-31T17:00:52.515Z,2.00
2018-08-31T17:03:20.956Z,1.67
2018-08-31T17:05:49.351Z,1.67
2018-08-31T17:08:17.703Z,2.30
2018-08-31T17:10:46.046Z,2.10
2018-08-31T17:13:14.421Z,1.47
2018-08-31T17:15:42.763Z,1.63
2018-08-31T17:18:11.243Z,2.40
2018-08-31T17:20:39.604Z,1.60
2018-08-31T17:23:08.671Z,2.07
2018-08-31T17:25:37.165Z,2.00
2018-08-31T17:28:10.855Z,2.23
2018-08-31T17:30:39.701Z,1.67
2018-08-31T17:33:13.265Z,1.87
2018-08-31T17:35:46.985Z,1.27
2018-08-31T17:38:15.899Z,2.00
2018-08-31T17:40:44.256Z,1.57
2018-08-31T17:43:12.667Z,1.90
2018-08-31T17:45:41.135Z,1.57
2018-08-31T17:48:09.556Z,1.27
2018-08-31T17:50:38.120Z,1.70
2018-08-31T17:53:06.642Z,1.40
2018-08-31T17:55:35.041Z,1.93
2018-08-31T17:58:03.428Z,1.87
2018-08-31T18:00:32.053Z,2.10
2018-08-31T18:03:00.402Z,1.63
2018-08-31T18:05:28.813Z,1.83
2018-08-31T18:07:57.169Z,1.90
2018-08-31T18:10:26.239Z,1.37
2018-08-31T18:12:54.610Z,1.73
2018-08-31T18:15:23.085Z,1.03
2018-08-31T18:17:51.423Z,0.80
2018-08-31T18:20:19.826Z,1.10
2018-08-31T18:22:48.286Z,1.60
2018-08-31T18:25:16.744Z,1.07
2018-08-31T18:27:45.033Z,1.47
2018-08-31T18:30:13.959Z,1.60
2018-08-31T18:32:42.354Z,1.73
2018-08-31T18:35:10.708Z,1.43
2018-08-31T18:37:39.142Z,1.40
2018-08-31T18:40:08.096Z,1.33
2018-08-31T18:42:36.465Z,1.87
2018-08-31T18:45:04.847Z,1.80
2018-08-31T18:47:33.253Z,1.57
2018-08-31T18:50:01.676Z,1.03
2018-08-31T18:52:30.193Z,1.17
2018-08-31T18:54:58.581Z,1.13
2018-08-31T18:57:26.946Z,1.17
2018-08-31T18:59:55.451Z,1.23
2018-08-31T19:02:23.874Z,1.40
2018-08-31T19:04:52.216Z,1.30
2018-08-31T19:07:20.576Z,1.97
2018-08-31T19:09:49.481Z,1.60
2018-08-31T19:12:17.821Z,1.40
2018-08-31T19:14:46.293Z,1.63
2018-08-31T19:17:14.675Z,1.53
2018-08-31T19:19:43.060Z,1.77
2018-08-31T19:22:11.692Z,1.33
2018-08-31T19:24:40.107Z,1.37
2018-08-31T19:27:08.489Z,1.70
2018-08-31T19:29:37.210Z,2.00
2018-08-31T19:32:06.555Z,1.47
2018-08-31T19:34:35.789Z,1.57
2018-08-31T19:37:04.223Z,1.23
2018-08-31T19:39:32.851Z,1.33
2018-08-31T19:42:01.193Z,1.87
2018-08-31T19:44:29.675Z,1.37
2018-08-31T19:47:04.913Z,1.60
2018-08-31T19:49:33.358Z,1.23
2018-08-31T19:52:01.723Z,1.23
2018-08-31T19:54:30.587Z,1.07
2018-08-31T19:56:59.565Z,1.53
2018-08-31T19:59:28.197Z,1.87
2018-08-31T20:01:56.556Z,1.27
2018-08-31T20:04:24.953Z,1.70
2018-08-31T20:06:53.323Z,1.10
2018-08-31T20:09:21.835Z,1.87
2018-08-31T20:11:50.528Z,1.70
2018-08-31T20:14:18.910Z,1.50
2018-08-31T20:16:47.260Z,0.80
2018-08-31T20:19:15.623Z,1.37
2018-08-31T20:21:44.614Z,1.30
2018-08-31T20:24:12.964Z,1.13
2018-08-31T20:26:41.307Z,1.17
2018-08-31T20:29:09.674Z,1.17
2018-08-31T20:31:38.022Z,1.30
2018-08-31T20:34:06.424Z,1.20
2018-08-31T20:36:34.896Z,1.33
2018-08-31T20:39:04.434Z,1.33
2018-08-31T20:41:32.792Z,1.50
2018-08-31T20:44:01.133Z,1.00
2018-08-31T20:46:29.536Z,1.60
2018-08-31T20:48:58.143Z,1.50
2018-08-31T20:51:26.535Z,2.17
2018-08-31T20:53:54.932Z,2.03
2018-08-31T20:56:23.322Z,2.77
2018-08-31T20:58:51.704Z,4.43
2018-08-31T21:01:20.035Z,3.93
2018-08-31T21:03:48.499Z,2.73
2018-08-31T21:06:16.943Z,1.80
2018-08-31T21:08:51.960Z,2.50
2018-08-31T21:11:20.352Z,1.70
2018-08-31T21:13:48.686Z,2.23
2018-08-31T21:16:17.073Z,1.80
2018-08-31T21:18:46.017Z,1.60
2018-08-31T21:21:14.378Z,2.10
2018-08-31T21:23:42.714Z,1.60
2018-08-31T21:26:11.234Z,2.07
2018-08-31T21:28:39.584Z,1.37
2018-08-31T21:31:08.059Z,1.73
2018-08-31T21:33:36.536Z,1.80
2018-08-31T21:36:04.907Z,1.63
2018-08-31T21:38:34.006Z,2.63
2018-08-31T21:41:02.390Z,2.00
2018-08-31T21:43:30.718Z,2.50
2018-08-31T21:45:59.096Z,1.93
2018-08-31T21:48:27.413Z,1.33
2018-08-31T21:50:55.837Z,1.60
2018-08-31T21:53:24.177Z,1.50
2018-08-31T21:55:52.518Z,2.07
2018-08-31T21:58:20.889Z,1.63
2018-08-31T22:00:49.300Z,1.40
2018-08-31T22:03:17.740Z,2.30
2018-08-31T22:05:47.656Z,1.93
2018-08-31T22:08:16.961Z,2.30
2018-08-31T22:10:45.351Z,2.27
2018-08-31T22:13:13.718Z,1.90
2018-08-31T22:15:42.138Z,1.50
2018-08-31T22:18:10.583Z,2.10
2018-08-31T22:20:39.047Z,2.10
2018-08-31T22:23:07.413Z,1.90
2018-08-31T22:25:35.768Z,1.57
2018-08-31T22:28:04.113Z,1.83
2018-08-31T22:30:32.488Z,1.40
2018-08-31T22:33:01.050Z,1.83
2018-08-31T22:35:29.454Z,2.10
2018-08-31T22:37:57.784Z,1.23
2018-08-31T22:40:26.109Z,2.00
2018-08-31T22:42:54.539Z,1.50
2018-08-31T22:45:22.879Z,1.60
2018-08-31T22:47:51.249Z,1.43
2018-08-31T22:50:20.923Z,2.20
2018-08-31T22:52:49.274Z,1.50
2018-08-31T22:55:17.637Z,1.30
2018-08-31T22:57:46.078Z,1.20
2018-08-31T23:00:14.404Z,1.90
2018-08-31T23:02:42.748Z,1.87
2018-08-31T23:05:11.099Z,1.50
2018-08-31T23:08:10.024Z,1.77
2018-08-31T23:10:38.434Z,2.03
2018-08-31T23:13:07.587Z,2.77
2018-08-31T23:15:35.887Z,1.37
2018-08-31T23:18:04.536Z,1.77
2018-08-31T23:20:33.628Z,1.00
2018-08-31T23:23:07.754Z,1.67
2018-08-31T23:25:41.447Z,1.17
2018-08-31T23:28:09.808Z,2.20
2018-08-31T23:30:38.143Z,1.73
2018-08-31T23:33:06.548Z,2.10
2018-08-31T23:35:35.049Z,1.77
2018-08-31T23:38:03.462Z,1.80
2018-08-31T23:40:31.782Z,1.80
2018-08-31T23:43:00.478Z,1.50
2018-08-31T23:45:28.890Z,1.80
2018-08-31T23:47:57.323Z,2.23
2018-08-31T23:50:25.704Z,2.10
2018-08-31T23:52:54.238Z,2.10
2018-08-31T23:55:22.582Z,2.57
2018-08-31T23:57:50.957Z,2.90
